sensor_id;sensor_type;location;lat;lon;timestamp;P1;durP1;ratioP1;P2;durP2;ratioP2
40198;SDS011;25906;43.536;26.068;2024-02-23T00:00:54;19.80;;;9.90;;
40198;SDS011;25906;43.536;26.068;2024-02-23T00:03:39;17.10;;;9.43;;
40198;SDS011;25906;43.536;26.068;2024-02-23T00:06:25;15.95;;;8.60;;
40198;SDS011;25906;43.536;26.068;2024-02-23T00:09:12;14.55;;;8.40;;
40198;SDS011;25906;43.536;26.068;2024-02-23T00:11:58;18.00;;;9.02;;
40198;SDS011;25906;43.536;26.068;2024-02-23T00:14:43;18.48;;;8.57;;
40198;SDS011;25906;43.536;26.068;2024-02-23T00:17:29;14.90;;;8.43;;
40198;SDS011;25906;43.536;26.068;2024-02-23T00:20:14;13.43;;;8.30;;
40198;SDS011;25906;43.536;26.068;2024-02-23T00:23:01;14.88;;;8.65;;
40198;SDS011;25906;43.536;26.068;2024-02-23T00:25:47;15.05;;;7.95;;
40198;SDS011;25906;43.536;26.068;2024-02-23T00:28:33;11.75;;;7.40;;
40198;SDS011;25906;43.536;26.068;2024-02-23T00:31:18;16.67;;;9.00;;
40198;SDS011;25906;43.536;26.068;2024-02-23T00:34:04;16.27;;;8.65;;
40198;SDS011;25906;43.536;26.068;2024-02-23T00:36:49;14.68;;;8.02;;
40198;SDS011;25906;43.536;26.068;2024-02-23T00:39:35;13.77;;;8.20;;
40198;SDS011;25906;43.536;26.068;2024-02-23T00:42:21;13.25;;;8.65;;
40198;SDS011;25906;43.536;26.068;2024-02-23T00:45:07;13.50;;;8.02;;
40198;SDS011;25906;43.536;26.068;2024-02-23T00:47:52;14.05;;;7.85;;
40198;SDS011;25906;43.536;26.068;2024-02-23T00:50:38;11.80;;;6.95;;
40198;SDS011;25906;43.536;26.068;2024-02-23T00:53:23;13.20;;;7.45;;
40198;SDS011;25906;43.536;26.068;2024-02-23T00:56:09;13.20;;;7.38;;
40198;SDS011;25906;43.536;26.068;2024-02-23T00:58:54;13.43;;;7.88;;
40198;SDS011;25906;43.536;26.068;2024-02-23T01:01:40;11.82;;;7.38;;
40198;SDS011;25906;43.536;26.068;2024-02-23T01:04:25;12.05;;;7.65;;
40198;SDS011;25906;43.536;26.068;2024-02-23T01:07:11;13.35;;;7.75;;
40198;SDS011;25906;43.536;26.068;2024-02-23T01:09:56;14.13;;;7.82;;
40198;SDS011;25906;43.536;26.068;2024-02-23T01:12:43;13.13;;;7.00;;
40198;SDS011;25906;43.536;26.068;2024-02-23T01:15:29;13.15;;;8.05;;
40198;SDS011;25906;43.536;26.068;2024-02-23T01:18:14;11.65;;;7.35;;
40198;SDS011;25906;43.536;26.068;2024-02-23T01:20:59;11.68;;;7.15;;
40198;SDS011;25906;43.536;26.068;2024-02-23T01:23:45;11.13;;;7.00;;
40198;SDS011;25906;43.536;26.068;2024-02-23T01:26:30;13.25;;;7.80;;
40198;SDS011;25906;43.536;26.068;2024-02-23T01:29:16;12.38;;;7.30;;
40198;SDS011;25906;43.536;26.068;2024-02-23T01:32:02;12.88;;;6.80;;
40198;SDS011;25906;43.536;26.068;2024-02-23T01:34:47;15.40;;;8.23;;
40198;SDS011;25906;43.536;26.068;2024-02-23T01:37:33;13.13;;;7.35;;
40198;SDS011;25906;43.536;26.068;2024-02-23T01:43:04;10.82;;;7.18;;
40198;SDS011;25906;43.536;26.068;2024-02-23T01:45:50;11.40;;;7.18;;
40198;SDS011;25906;43.536;26.068;2024-02-23T01:48:36;12.45;;;7.28;;
40198;SDS011;25906;43.536;26.068;2024-02-23T01:51:22;12.15;;;7.97;;
40198;SDS011;25906;43.536;26.068;2024-02-23T01:54:08;12.90;;;7.78;;
40198;SDS011;25906;43.536;26.068;2024-02-23T01:56:54;13.75;;;7.93;;
40198;SDS011;25906;43.536;26.068;2024-02-23T01:59:41;13.18;;;7.93;;
40198;SDS011;25906;43.536;26.068;2024-02-23T02:02:27;10.90;;;6.88;;
40198;SDS011;25906;43.536;26.068;2024-02-23T02:05:13;14.02;;;8.20;;
40198;SDS011;25906;43.536;26.068;2024-02-23T02:07:59;13.73;;;7.57;;
40198;SDS011;25906;43.536;26.068;2024-02-23T02:10:45;12.27;;;7.22;;
40198;SDS011;25906;43.536;26.068;2024-02-23T02:13:32;13.05;;;7.68;;
40198;SDS011;25906;43.536;26.068;2024-02-23T02:16:17;11.48;;;6.90;;
40198;SDS011;25906;43.536;26.068;2024-02-23T02:19:03;12.80;;;7.78;;
40198;SDS011;25906;43.536;26.068;2024-02-23T02:21:48;13.80;;;7.72;;
40198;SDS011;25906;43.536;26.068;2024-02-23T02:24:34;13.48;;;8.25;;
40198;SDS011;25906;43.536;26.068;2024-02-23T02:27:19;12.40;;;7.72;;
40198;SDS011;25906;43.536;26.068;2024-02-23T02:30:05;13.00;;;7.55;;
40198;SDS011;25906;43.536;26.068;2024-02-23T02:35:36;12.27;;;7.28;;
40198;SDS011;25906;43.536;26.068;2024-02-23T02:38:21;13.90;;;7.10;;
40198;SDS011;25906;43.536;26.068;2024-02-23T02:41:08;13.82;;;7.97;;
40198;SDS011;25906;43.536;26.068;2024-02-23T02:43:54;15.00;;;8.02;;
40198;SDS011;25906;43.536;26.068;2024-02-23T02:46:40;13.20;;;7.95;;
40198;SDS011;25906;43.536;26.068;2024-02-23T02:49:25;18.83;;;7.70;;
40198;SDS011;25906;43.536;26.068;2024-02-23T02:52:11;12.07;;;7.88;;
40198;SDS011;25906;43.536;26.068;2024-02-23T02:54:56;13.98;;;7.18;;
40198;SDS011;25906;43.536;26.068;2024-02-23T02:57:43;13.70;;;7.30;;
40198;SDS011;25906;43.536;26.068;2024-02-23T03:00:29;12.73;;;7.07;;
40198;SDS011;25906;43.536;26.068;2024-02-23T03:03:16;11.38;;;6.70;;
40198;SDS011;25906;43.536;26.068;2024-02-23T03:06:01;16.27;;;8.75;;
40198;SDS011;25906;43.536;26.068;2024-02-23T03:08:47;12.57;;;7.63;;
40198;SDS011;25906;43.536;26.068;2024-02-23T03:11:32;14.57;;;7.63;;
40198;SDS011;25906;43.536;26.068;2024-02-23T03:14:18;14.35;;;8.15;;
40198;SDS011;25906;43.536;26.068;2024-02-23T03:17:08;10.35;;;6.88;;
40198;SDS011;25906;43.536;26.068;2024-02-23T03:19:56;12.02;;;7.20;;
40198;SDS011;25906;43.536;26.068;2024-02-23T03:22:42;13.32;;;7.65;;
40198;SDS011;25906;43.536;26.068;2024-02-23T03:25:29;13.57;;;7.80;;
40198;SDS011;25906;43.536;26.068;2024-02-23T03:28:14;12.18;;;7.38;;
40198;SDS011;25906;43.536;26.068;2024-02-23T03:31:00;16.55;;;7.82;;
40198;SDS011;25906;43.536;26.068;2024-02-23T03:33:45;13.23;;;7.85;;
40198;SDS011;25906;43.536;26.068;2024-02-23T03:36:30;13.93;;;8.30;;
40198;SDS011;25906;43.536;26.068;2024-02-23T03:39:16;20.67;;;8.05;;
40198;SDS011;25906;43.536;26.068;2024-02-23T03:42:02;14.85;;;8.00;;
40198;SDS011;25906;43.536;26.068;2024-02-23T03:44:47;11.02;;;7.13;;
40198;SDS011;25906;43.536;26.068;2024-02-23T03:47:32;13.02;;;7.43;;
40198;SDS011;25906;43.536;26.068;2024-02-23T03:50:18;11.40;;;6.90;;
40198;SDS011;25906;43.536;26.068;2024-02-23T03:53:03;10.18;;;7.15;;
40198;SDS011;25906;43.536;26.068;2024-02-23T03:55:49;12.30;;;6.63;;
40198;SDS011;25906;43.536;26.068;2024-02-23T03:58:34;11.80;;;7.30;;
40198;SDS011;25906;43.536;26.068;2024-02-23T04:01:20;13.88;;;7.13;;
40198;SDS011;25906;43.536;26.068;2024-02-23T04:04:06;11.88;;;7.32;;
40198;SDS011;25906;43.536;26.068;2024-02-23T04:09:37;9.45;;;6.47;;
40198;SDS011;25906;43.536;26.068;2024-02-23T04:12:22;12.05;;;7.13;;
40198;SDS011;25906;43.536;26.068;2024-02-23T04:15:08;9.55;;;6.47;;
40198;SDS011;25906;43.536;26.068;2024-02-23T04:17:54;10.85;;;6.93;;
40198;SDS011;25906;43.536;26.068;2024-02-23T04:20:39;12.02;;;6.70;;
40198;SDS011;25906;43.536;26.068;2024-02-23T04:23:25;12.65;;;6.72;;
40198;SDS011;25906;43.536;26.068;2024-02-23T04:26:11;11.70;;;7.03;;
40198;SDS011;25906;43.536;26.068;2024-02-23T04:28:56;11.27;;;7.15;;
40198;SDS011;25906;43.536;26.068;2024-02-23T04:31:42;10.50;;;6.78;;
40198;SDS011;25906;43.536;26.068;2024-02-23T04:34:27;10.25;;;6.68;;
40198;SDS011;25906;43.536;26.068;2024-02-23T04:37:13;13.43;;;6.75;;
40198;SDS011;25906;43.536;26.068;2024-02-23T04:39:59;13.20;;;7.00;;
40198;SDS011;25906;43.536;26.068;2024-02-23T04:42:44;11.95;;;7.28;;
40198;SDS011;25906;43.536;26.068;2024-02-23T04:45:30;11.43;;;6.90;;
40198;SDS011;25906;43.536;26.068;2024-02-23T04:48:16;16.00;;;7.15;;
40198;SDS011;25906;43.536;26.068;2024-02-23T04:51:01;10.35;;;6.55;;
40198;SDS011;25906;43.536;26.068;2024-02-23T04:53:47;13.18;;;6.97;;
40198;SDS011;25906;43.536;26.068;2024-02-23T04:56:32;11.45;;;7.15;;
40198;SDS011;25906;43.536;26.068;2024-02-23T05:02:04;12.25;;;6.85;;
40198;SDS011;25906;43.536;26.068;2024-02-23T05:04:49;13.27;;;7.72;;
40198;SDS011;25906;43.536;26.068;2024-02-23T05:07:34;11.13;;;6.82;;
40198;SDS011;25906;43.536;26.068;2024-02-23T05:10:20;11.55;;;7.03;;
40198;SDS011;25906;43.536;26.068;2024-02-23T05:13:06;12.30;;;6.95;;
40198;SDS011;25906;43.536;26.068;2024-02-23T05:15:51;14.70;;;7.30;;
40198;SDS011;25906;43.536;26.068;2024-02-23T05:18:36;18.35;;;8.05;;
40198;SDS011;25906;43.536;26.068;2024-02-23T05:21:22;13.48;;;7.20;;
40198;SDS011;25906;43.536;26.068;2024-02-23T05:24:07;13.15;;;7.45;;
40198;SDS011;25906;43.536;26.068;2024-02-23T05:26:53;17.90;;;8.35;;
40198;SDS011;25906;43.536;26.068;2024-02-23T05:29:38;16.50;;;9.10;;
40198;SDS011;25906;43.536;26.068;2024-02-23T05:32:24;12.48;;;7.75;;
40198;SDS011;25906;43.536;26.068;2024-02-23T05:35:09;17.73;;;8.95;;
40198;SDS011;25906;43.536;26.068;2024-02-23T05:37:55;13.20;;;7.60;;
40198;SDS011;25906;43.536;26.068;2024-02-23T05:40:40;12.52;;;7.32;;
40198;SDS011;25906;43.536;26.068;2024-02-23T05:43:26;12.68;;;8.15;;
40198;SDS011;25906;43.536;26.068;2024-02-23T05:46:11;12.25;;;6.75;;
40198;SDS011;25906;43.536;26.068;2024-02-23T05:48:57;11.75;;;6.65;;
40198;SDS011;25906;43.536;26.068;2024-02-23T05:51:42;11.40;;;6.60;;
40198;SDS011;25906;43.536;26.068;2024-02-23T05:54:28;9.52;;;6.70;;
40198;SDS011;25906;43.536;26.068;2024-02-23T05:57:13;10.88;;;7.13;;
40198;SDS011;25906;43.536;26.068;2024-02-23T05:59:59;12.45;;;6.85;;
40198;SDS011;25906;43.536;26.068;2024-02-23T06:02:45;12.48;;;7.45;;
40198;SDS011;25906;43.536;26.068;2024-02-23T06:05:30;12.82;;;6.82;;
40198;SDS011;25906;43.536;26.068;2024-02-23T06:08:16;10.93;;;7.57;;
40198;SDS011;25906;43.536;26.068;2024-02-23T06:11:01;13.45;;;7.95;;
40198;SDS011;25906;43.536;26.068;2024-02-23T06:13:48;19.67;;;7.47;;
40198;SDS011;25906;43.536;26.068;2024-02-23T06:16:34;13.93;;;7.53;;
40198;SDS011;25906;43.536;26.068;2024-02-23T06:19:19;12.27;;;6.85;;
40198;SDS011;25906;43.536;26.068;2024-02-23T06:22:05;11.63;;;7.25;;
40198;SDS011;25906;43.536;26.068;2024-02-23T06:24:51;11.18;;;7.15;;
40198;SDS011;25906;43.536;26.068;2024-02-23T06:27:37;15.63;;;6.78;;
40198;SDS011;25906;43.536;26.068;2024-02-23T06:30:22;11.85;;;6.35;;
40198;SDS011;25906;43.536;26.068;2024-02-23T06:33:07;12.40;;;7.35;;
40198;SDS011;25906;43.536;26.068;2024-02-23T06:35:53;11.43;;;6.70;;
40198;SDS011;25906;43.536;26.068;2024-02-23T06:38:39;12.25;;;7.20;;
40198;SDS011;25906;43.536;26.068;2024-02-23T06:41:24;12.68;;;8.07;;
40198;SDS011;25906;43.536;26.068;2024-02-23T06:44:10;12.10;;;6.97;;
40198;SDS011;25906;43.536;26.068;2024-02-23T06:49:42;10.82;;;7.05;;
40198;SDS011;25906;43.536;26.068;2024-02-23T06:52:28;10.38;;;6.85;;
40198;SDS011;25906;43.536;26.068;2024-02-23T06:55:14;10.15;;;6.22;;
40198;SDS011;25906;43.536;26.068;2024-02-23T06:58:00;12.15;;;6.55;;
40198;SDS011;25906;43.536;26.068;2024-02-23T07:00:45;10.65;;;7.38;;
40198;SDS011;25906;43.536;26.068;2024-02-23T07:03:31;12.32;;;6.97;;
40198;SDS011;25906;43.536;26.068;2024-02-23T07:06:17;11.75;;;6.93;;
40198;SDS011;25906;43.536;26.068;2024-02-23T07:09:03;14.95;;;7.28;;
40198;SDS011;25906;43.536;26.068;2024-02-23T07:11:49;9.75;;;6.88;;
40198;SDS011;25906;43.536;26.068;2024-02-23T07:14:35;13.13;;;7.30;;
40198;SDS011;25906;43.536;26.068;2024-02-23T07:17:20;12.10;;;7.45;;
40198;SDS011;25906;43.536;26.068;2024-02-23T07:20:06;10.75;;;6.85;;
40198;SDS011;25906;43.536;26.068;2024-02-23T07:22:51;9.88;;;6.30;;
40198;SDS011;25906;43.536;26.068;2024-02-23T07:25:37;14.45;;;7.53;;
40198;SDS011;25906;43.536;26.068;2024-02-23T07:28:22;11.73;;;6.57;;
40198;SDS011;25906;43.536;26.068;2024-02-23T07:31:09;9.10;;;6.45;;
40198;SDS011;25906;43.536;26.068;2024-02-23T07:33:55;9.80;;;6.97;;
40198;SDS011;25906;43.536;26.068;2024-02-23T07:36:41;9.35;;;6.32;;
40198;SDS011;25906;43.536;26.068;2024-02-23T07:39:28;9.98;;;6.40;;
40198;SDS011;25906;43.536;26.068;2024-02-23T07:42:13;11.23;;;6.95;;
40198;SDS011;25906;43.536;26.068;2024-02-23T07:45:03;21.30;;;7.13;;
40198;SDS011;25906;43.536;26.068;2024-02-23T07:47:50;11.95;;;7.15;;
40198;SDS011;25906;43.536;26.068;2024-02-23T07:50:35;10.07;;;6.57;;
40198;SDS011;25906;43.536;26.068;2024-02-23T07:53:21;10.73;;;6.10;;
40198;SDS011;25906;43.536;26.068;2024-02-23T07:56:09;11.38;;;6.03;;
40198;SDS011;25906;43.536;26.068;2024-02-23T07:58:54;12.40;;;6.85;;
40198;SDS011;25906;43.536;26.068;2024-02-23T08:01:40;12.50;;;6.82;;
40198;SDS011;25906;43.536;26.068;2024-02-23T08:07:11;10.27;;;6.00;;
40198;SDS011;25906;43.536;26.068;2024-02-23T08:09:57;9.90;;;6.57;;
40198;SDS011;25906;43.536;26.068;2024-02-23T08:12:43;8.98;;;6.68;;
40198;SDS011;25906;43.536;26.068;2024-02-23T08:15:28;11.13;;;5.82;;
40198;SDS011;25906;43.536;26.068;2024-02-23T08:18:14;9.25;;;6.18;;
40198;SDS011;25906;43.536;26.068;2024-02-23T08:20:59;9.93;;;6.25;;
40198;SDS011;25906;43.536;26.068;2024-02-23T08:23:47;8.48;;;5.43;;
40198;SDS011;25906;43.536;26.068;2024-02-23T08:26:33;9.15;;;5.53;;
40198;SDS011;25906;43.536;26.068;2024-02-23T08:29:19;10.68;;;6.05;;
40198;SDS011;25906;43.536;26.068;2024-02-23T08:32:04;10.75;;;5.90;;
40198;SDS011;25906;43.536;26.068;2024-02-23T08:34:51;9.43;;;6.13;;
40198;SDS011;25906;43.536;26.068;2024-02-23T08:37:37;10.30;;;6.10;;
40198;SDS011;25906;43.536;26.068;2024-02-23T08:40:23;10.68;;;5.70;;
40198;SDS011;25906;43.536;26.068;2024-02-23T08:43:09;6.45;;;4.20;;
40198;SDS011;25906;43.536;26.068;2024-02-23T08:45:54;9.60;;;4.60;;
40198;SDS011;25906;43.536;26.068;2024-02-23T08:48:40;5.70;;;4.18;;
40198;SDS011;25906;43.536;26.068;2024-02-23T08:51:25;7.70;;;4.20;;
40198;SDS011;25906;43.536;26.068;2024-02-23T08:54:11;6.82;;;4.35;;
40198;SDS011;25906;43.536;26.068;2024-02-23T08:56:57;9.10;;;4.22;;
40198;SDS011;25906;43.536;26.068;2024-02-23T08:59:42;8.38;;;4.15;;
40198;SDS011;25906;43.536;26.068;2024-02-23T09:02:28;5.43;;;4.38;;
40198;SDS011;25906;43.536;26.068;2024-02-23T09:05:13;18.80;;;9.43;;
40198;SDS011;25906;43.536;26.068;2024-02-23T09:07:58;13.38;;;6.88;;
40198;SDS011;25906;43.536;26.068;2024-02-23T09:10:44;14.55;;;6.50;;
40198;SDS011;25906;43.536;26.068;2024-02-23T09:13:30;7.82;;;4.95;;
40198;SDS011;25906;43.536;26.068;2024-02-23T09:16:15;8.07;;;4.13;;
40198;SDS011;25906;43.536;26.068;2024-02-23T09:19:01;5.90;;;3.75;;
40198;SDS011;25906;43.536;26.068;2024-02-23T09:21:46;6.25;;;4.15;;
40198;SDS011;25906;43.536;26.068;2024-02-23T09:24:32;6.38;;;4.03;;
40198;SDS011;25906;43.536;26.068;2024-02-23T09:27:20;5.03;;;3.63;;
40198;SDS011;25906;43.536;26.068;2024-02-23T09:30:06;8.13;;;3.95;;
40198;SDS011;25906;43.536;26.068;2024-02-23T09:32:52;7.18;;;4.38;;
40198;SDS011;25906;43.536;26.068;2024-02-23T09:35:37;6.53;;;3.72;;
40198;SDS011;25906;43.536;26.068;2024-02-23T09:38:23;5.72;;;4.05;;
40198;SDS011;25906;43.536;26.068;2024-02-23T09:41:20;4.05;;;3.22;;
40198;SDS011;25906;43.536;26.068;2024-02-23T09:44:07;6.32;;;3.70;;
40198;SDS011;25906;43.536;26.068;2024-02-23T09:46:54;17.27;;;4.88;;
40198;SDS011;25906;43.536;26.068;2024-02-23T09:49:40;10.65;;;3.53;;
40198;SDS011;25906;43.536;26.068;2024-02-23T09:52:26;6.38;;;3.80;;
40198;SDS011;25906;43.536;26.068;2024-02-23T09:55:13;5.72;;;3.25;;
40198;SDS011;25906;43.536;26.068;2024-02-23T09:57:59;7.82;;;3.90;;
40198;SDS011;25906;43.536;26.068;2024-02-23T10:00:44;4.95;;;3.25;;
40198;SDS011;25906;43.536;26.068;2024-02-23T10:03:30;4.65;;;3.50;;
40198;SDS011;25906;43.536;26.068;2024-02-23T10:06:16;7.53;;;4.07;;
40198;SDS011;25906;43.536;26.068;2024-02-23T10:09:01;6.38;;;3.35;;
40198;SDS011;25906;43.536;26.068;2024-02-23T10:11:55;10.20;;;4.53;;
40198;SDS011;25906;43.536;26.068;2024-02-23T10:14:43;8.05;;;4.00;;
40198;SDS011;25906;43.536;26.068;2024-02-23T10:17:29;6.53;;;3.85;;
40198;SDS011;25906;43.536;26.068;2024-02-23T10:20:15;8.93;;;4.72;;
40198;SDS011;25906;43.536;26.068;2024-02-23T10:23:00;15.27;;;4.35;;
40198;SDS011;25906;43.536;26.068;2024-02-23T10:25:46;9.35;;;4.20;;
40198;SDS011;25906;43.536;26.068;2024-02-23T10:28:32;6.82;;;3.72;;
40198;SDS011;25906;43.536;26.068;2024-02-23T10:31:19;13.35;;;4.75;;
40198;SDS011;25906;43.536;26.068;2024-02-23T10:34:07;6.75;;;3.92;;
40198;SDS011;25906;43.536;26.068;2024-02-23T10:36:56;4.75;;;3.55;;
40198;SDS011;25906;43.536;26.068;2024-02-23T10:39:42;4.85;;;3.78;;
40198;SDS011;25906;43.536;26.068;2024-02-23T10:42:28;4.00;;;3.17;;
40198;SDS011;25906;43.536;26.068;2024-02-23T10:45:18;4.55;;;3.28;;
40198;SDS011;25906;43.536;26.068;2024-02-23T10:48:06;5.00;;;3.63;;
40198;SDS011;25906;43.536;26.068;2024-02-23T10:50:55;5.82;;;3.58;;
40198;SDS011;25906;43.536;26.068;2024-02-23T10:53:42;4.85;;;3.22;;
40198;SDS011;25906;43.536;26.068;2024-02-23T10:56:29;4.22;;;3.28;;
40198;SDS011;25906;43.536;26.068;2024-02-23T10:59:15;4.05;;;3.42;;
40198;SDS011;25906;43.536;26.068;2024-02-23T11:02:07;6.75;;;3.47;;
40198;SDS011;25906;43.536;26.068;2024-02-23T11:04:53;6.32;;;3.17;;
40198;SDS011;25906;43.536;26.068;2024-02-23T11:07:40;6.40;;;3.70;;
40198;SDS011;25906;43.536;26.068;2024-02-23T11:10:26;4.85;;;3.30;;
40198;SDS011;25906;43.536;26.068;2024-02-23T11:13:13;6.35;;;3.95;;
40198;SDS011;25906;43.536;26.068;2024-02-23T11:16:03;6.40;;;3.70;;
40198;SDS011;25906;43.536;26.068;2024-02-23T11:18:49;6.75;;;3.20;;
40198;SDS011;25906;43.536;26.068;2024-02-23T11:21:38;5.55;;;3.58;;
40198;SDS011;25906;43.536;26.068;2024-02-23T11:24:25;5.10;;;3.58;;
40198;SDS011;25906;43.536;26.068;2024-02-23T11:27:14;4.75;;;3.40;;
40198;SDS011;25906;43.536;26.068;2024-02-23T11:30:05;5.88;;;3.85;;
40198;SDS011;25906;43.536;26.068;2024-02-23T11:32:58;5.55;;;3.65;;
40198;SDS011;25906;43.536;26.068;2024-02-23T11:35:47;6.82;;;3.60;;
40198;SDS011;25906;43.536;26.068;2024-02-23T11:38:34;7.60;;;3.80;;
40198;SDS011;25906;43.536;26.068;2024-02-23T11:41:21;5.82;;;3.67;;
40198;SDS011;25906;43.536;26.068;2024-02-23T11:44:08;7.60;;;3.88;;
40198;SDS011;25906;43.536;26.068;2024-02-23T11:49:39;6.97;;;3.72;;
40198;SDS011;25906;43.536;26.068;2024-02-23T11:52:25;8.32;;;3.60;;
40198;SDS011;25906;43.536;26.068;2024-02-23T11:55:10;6.78;;;3.45;;
40198;SDS011;25906;43.536;26.068;2024-02-23T11:57:56;5.20;;;3.40;;
40198;SDS011;25906;43.536;26.068;2024-02-23T12:03:27;7.35;;;3.53;;
40198;SDS011;25906;43.536;26.068;2024-02-23T12:06:16;5.45;;;3.75;;
40198;SDS011;25906;43.536;26.068;2024-02-23T12:09:02;7.82;;;3.85;;
40198;SDS011;25906;43.536;26.068;2024-02-23T12:11:49;5.22;;;3.75;;
40198;SDS011;25906;43.536;26.068;2024-02-23T12:14:35;4.65;;;3.25;;
40198;SDS011;25906;43.536;26.068;2024-02-23T12:17:21;5.70;;;4.13;;
40198;SDS011;25906;43.536;26.068;2024-02-23T12:20:07;6.35;;;3.55;;
40198;SDS011;25906;43.536;26.068;2024-02-23T12:25:39;4.82;;;3.60;;
40198;SDS011;25906;43.536;26.068;2024-02-23T12:28:25;5.15;;;3.25;;
40198;SDS011;25906;43.536;26.068;2024-02-23T12:31:11;4.72;;;3.35;;
40198;SDS011;25906;43.536;26.068;2024-02-23T12:33:57;4.63;;;3.40;;
40198;SDS011;25906;43.536;26.068;2024-02-23T12:36:43;5.20;;;3.53;;
40198;SDS011;25906;43.536;26.068;2024-02-23T12:39:28;6.10;;;3.97;;
40198;SDS011;25906;43.536;26.068;2024-02-23T12:42:13;4.72;;;3.55;;
40198;SDS011;25906;43.536;26.068;2024-02-23T12:44:59;5.80;;;3.22;;
40198;SDS011;25906;43.536;26.068;2024-02-23T12:47:44;7.72;;;3.38;;
40198;SDS011;25906;43.536;26.068;2024-02-23T12:50:30;7.20;;;3.40;;
40198;SDS011;25906;43.536;26.068;2024-02-23T12:56:24;4.93;;;3.00;;
40198;SDS011;25906;43.536;26.068;2024-02-23T12:59:10;6.20;;;3.38;;
40198;SDS011;25906;43.536;26.068;2024-02-23T13:01:55;4.15;;;3.17;;
40198;SDS011;25906;43.536;26.068;2024-02-23T13:04:41;6.13;;;2.83;;
40198;SDS011;25906;43.536;26.068;2024-02-23T13:07:28;3.50;;;2.63;;
40198;SDS011;25906;43.536;26.068;2024-02-23T13:10:13;5.93;;;3.47;;
40198;SDS011;25906;43.536;26.068;2024-02-23T13:13:00;4.53;;;2.92;;
40198;SDS011;25906;43.536;26.068;2024-02-23T13:15:46;5.47;;;3.08;;
40198;SDS011;25906;43.536;26.068;2024-02-23T13:18:32;4.03;;;3.03;;
40198;SDS011;25906;43.536;26.068;2024-02-23T13:21:17;4.15;;;3.15;;
40198;SDS011;25906;43.536;26.068;2024-02-23T13:24:03;5.70;;;2.92;;
40198;SDS011;25906;43.536;26.068;2024-02-23T13:29:34;5.63;;;2.95;;
40198;SDS011;25906;43.536;26.068;2024-02-23T13:32:21;5.53;;;3.35;;
40198;SDS011;25906;43.536;26.068;2024-02-23T13:35:06;4.28;;;2.83;;
40198;SDS011;25906;43.536;26.068;2024-02-23T13:37:53;3.58;;;2.63;;
40198;SDS011;25906;43.536;26.068;2024-02-23T13:40:39;4.05;;;2.63;;
40198;SDS011;25906;43.536;26.068;2024-02-23T13:43:24;7.18;;;3.50;;
40198;SDS011;25906;43.536;26.068;2024-02-23T13:46:10;7.60;;;2.83;;
40198;SDS011;25906;43.536;26.068;2024-02-23T13:49:05;4.38;;;3.10;;
40198;SDS011;25906;43.536;26.068;2024-02-23T13:51:52;4.05;;;3.22;;
40198;SDS011;25906;43.536;26.068;2024-02-23T13:54:37;3.15;;;2.67;;
40198;SDS011;25906;43.536;26.068;2024-02-23T13:57:23;4.70;;;3.08;;
40198;SDS011;25906;43.536;26.068;2024-02-23T14:00:09;5.25;;;2.78;;
40198;SDS011;25906;43.536;26.068;2024-02-23T14:02:57;3.33;;;2.90;;
40198;SDS011;25906;43.536;26.068;2024-02-23T14:05:43;7.25;;;2.83;;
40198;SDS011;25906;43.536;26.068;2024-02-23T14:08:29;3.67;;;2.70;;
40198;SDS011;25906;43.536;26.068;2024-02-23T14:11:15;5.53;;;3.28;;
40198;SDS011;25906;43.536;26.068;2024-02-23T14:16:47;4.32;;;2.90;;
40198;SDS011;25906;43.536;26.068;2024-02-23T14:19:33;5.93;;;2.80;;
40198;SDS011;25906;43.536;26.068;2024-02-23T14:22:18;4.80;;;2.17;;
40198;SDS011;25906;43.536;26.068;2024-02-23T14:25:04;3.30;;;2.42;;
40198;SDS011;25906;43.536;26.068;2024-02-23T14:27:49;4.35;;;2.63;;
40198;SDS011;25906;43.536;26.068;2024-02-23T14:30:35;3.22;;;2.70;;
40198;SDS011;25906;43.536;26.068;2024-02-23T14:33:20;3.60;;;2.75;;
40198;SDS011;25906;43.536;26.068;2024-02-23T14:36:06;3.53;;;2.72;;
40198;SDS011;25906;43.536;26.068;2024-02-23T14:38:52;3.17;;;2.60;;
40198;SDS011;25906;43.536;26.068;2024-02-23T14:41:38;4.00;;;2.63;;
40198;SDS011;25906;43.536;26.068;2024-02-23T14:44:24;33.88;;;4.55;;
40198;SDS011;25906;43.536;26.068;2024-02-23T14:47:09;4.38;;;2.70;;
40198;SDS011;25906;43.536;26.068;2024-02-23T14:49:55;73.82;;;6.55;;
40198;SDS011;25906;43.536;26.068;2024-02-23T14:52:40;10.55;;;3.00;;
40198;SDS011;25906;43.536;26.068;2024-02-23T14:55:25;6.60;;;2.97;;
40198;SDS011;25906;43.536;26.068;2024-02-23T14:58:11;5.40;;;2.72;;
40198;SDS011;25906;43.536;26.068;2024-02-23T15:00:57;4.10;;;2.70;;
40198;SDS011;25906;43.536;26.068;2024-02-23T15:03:43;7.63;;;2.80;;
40198;SDS011;25906;43.536;26.068;2024-02-23T15:06:28;5.35;;;3.00;;
40198;SDS011;25906;43.536;26.068;2024-02-23T15:09:14;8.25;;;3.08;;
40198;SDS011;25906;43.536;26.068;2024-02-23T15:11:59;6.05;;;2.80;;
40198;SDS011;25906;43.536;26.068;2024-02-23T15:14:45;4.15;;;2.50;;
40198;SDS011;25906;43.536;26.068;2024-02-23T15:17:30;4.93;;;2.75;;
40198;SDS011;25906;43.536;26.068;2024-02-23T15:20:16;5.13;;;3.25;;
40198;SDS011;25906;43.536;26.068;2024-02-23T15:23:01;9.38;;;3.30;;
40198;SDS011;25906;43.536;26.068;2024-02-23T15:25:47;5.93;;;2.97;;
40198;SDS011;25906;43.536;26.068;2024-02-23T15:28:33;4.05;;;2.80;;
40198;SDS011;25906;43.536;26.068;2024-02-23T15:31:18;9.85;;;3.63;;
40198;SDS011;25906;43.536;26.068;2024-02-23T15:34:05;12.82;;;4.00;;
40198;SDS011;25906;43.536;26.068;2024-02-23T15:36:51;7.32;;;3.80;;
40198;SDS011;25906;43.536;26.068;2024-02-23T15:39:36;6.85;;;4.22;;
40198;SDS011;25906;43.536;26.068;2024-02-23T15:42:22;11.43;;;5.55;;
40198;SDS011;25906;43.536;26.068;2024-02-23T15:45:07;50.03;;;24.48;;
40198;SDS011;25906;43.536;26.068;2024-02-23T15:47:53;21.42;;;10.95;;
40198;SDS011;25906;43.536;26.068;2024-02-23T15:50:39;13.35;;;7.25;;
40198;SDS011;25906;43.536;26.068;2024-02-23T15:53:25;18.98;;;9.23;;
40198;SDS011;25906;43.536;26.068;2024-02-23T15:56:12;30.83;;;13.95;;
40198;SDS011;25906;43.536;26.068;2024-02-23T15:58:57;14.75;;;6.45;;
40198;SDS011;25906;43.536;26.068;2024-02-23T16:01:43;7.53;;;4.18;;
40198;SDS011;25906;43.536;26.068;2024-02-23T16:04:28;9.95;;;4.78;;
40198;SDS011;25906;43.536;26.068;2024-02-23T16:07:14;9.63;;;4.10;;
40198;SDS011;25906;43.536;26.068;2024-02-23T16:12:49;49.78;;;19.40;;
40198;SDS011;25906;43.536;26.068;2024-02-23T16:15:35;115.82;;;51.15;;
40198;SDS011;25906;43.536;26.068;2024-02-23T16:18:21;44.30;;;21.50;;
40198;SDS011;25906;43.536;26.068;2024-02-23T16:21:06;23.17;;;11.98;;
40198;SDS011;25906;43.536;26.068;2024-02-23T16:23:52;6.55;;;4.05;;
40198;SDS011;25906;43.536;26.068;2024-02-23T16:26:37;5.00;;;3.38;;
40198;SDS011;25906;43.536;26.068;2024-02-23T16:32:09;5.88;;;3.78;;
40198;SDS011;25906;43.536;26.068;2024-02-23T16:34:54;4.80;;;2.90;;
40198;SDS011;25906;43.536;26.068;2024-02-23T16:37:40;6.93;;;4.22;;
40198;SDS011;25906;43.536;26.068;2024-02-23T16:40:25;8.05;;;4.07;;
40198;SDS011;25906;43.536;26.068;2024-02-23T16:43:14;6.70;;;4.00;;
40198;SDS011;25906;43.536;26.068;2024-02-23T16:45:59;5.20;;;3.35;;
40198;SDS011;25906;43.536;26.068;2024-02-23T16:48:45;4.70;;;3.03;;
40198;SDS011;25906;43.536;26.068;2024-02-23T16:51:30;7.95;;;2.58;;
40198;SDS011;25906;43.536;26.068;2024-02-23T16:54:16;8.45;;;3.63;;
40198;SDS011;25906;43.536;26.068;2024-02-23T16:57:02;5.93;;;3.20;;